createdAt,value
2022-10-19T00:04:34.980Z,83.41
2022-10-19T00:09:37.160Z,83.51
2022-10-19T00:14:39.511Z,83.58
2022-10-19T00:19:41.654Z,83.47
2022-10-19T00:24:44.011Z,83.68
2022-10-19T00:29:46.188Z,83.47
2022-10-19T00:34:48.361Z,83.53
2022-10-19T00:44:52.625Z,83.61
2022-10-19T00:50:14.863Z,83.48
2022-10-19T00:55:37.395Z,83.75
2022-10-19T01:00:59.796Z,83.58
2022-10-19T01:06:02.226Z,83.41
2022-10-19T01:11:27.696Z,83.92
2022-10-19T01:16:40.072Z,83.70
2022-10-19T01:21:46.323Z,83.68
2022-10-19T01:26:54.303Z,83.61
2022-10-19T01:32:37.900Z,84.01
2022-10-19T01:38:12.204Z,84.13
2022-10-19T01:43:38.739Z,83.92
2022-10-19T01:49:04.773Z,83.67
2022-10-19T01:54:27.066Z,83.74
2022-10-19T01:59:29.509Z,83.63
2022-10-19T02:04:32.606Z,83.77
2022-10-19T02:09:34.761Z,83.65
2022-10-19T02:14:57.785Z,83.76
2022-10-19T02:19:59.909Z,83.77
2022-10-19T02:25:02.943Z,83.81
2022-10-19T02:30:05.840Z,84.03
2022-10-19T02:35:08.412Z,83.94
2022-10-19T02:40:11.307Z,83.86
2022-10-19T02:45:25.834Z,83.99
2022-10-19T02:50:28.198Z,83.75
2022-10-19T02:55:31.023Z,83.76
2022-10-19T03:00:33.198Z,83.78
2022-10-19T03:05:35.350Z,84.09
2022-10-19T03:10:37.619Z,83.89
2022-10-19T03:15:39.896Z,83.95
2022-10-19T03:20:44.348Z,83.94
2022-10-19T03:25:46.408Z,84.02
2022-10-19T03:30:49.073Z,83.79
2022-10-19T03:36:15.111Z,83.95
2022-10-19T03:41:17.390Z,83.77
2022-10-19T03:46:20.401Z,83.94
2022-10-19T03:51:25.165Z,83.75
2022-10-19T03:56:29.618Z,83.66
2022-10-19T04:01:34.330Z,83.80
2022-10-19T04:06:38.355Z,83.73
2022-10-19T04:11:59.019Z,83.86
2022-10-19T04:17:04.332Z,83.67
2022-10-19T04:22:06.594Z,83.64
2022-10-19T04:27:08.668Z,83.44
2022-10-19T04:32:10.845Z,83.58
2022-10-19T04:37:19.805Z,83.34
2022-10-19T04:42:22.026Z,83.43
2022-10-19T04:47:24.179Z,83.35
2022-10-19T04:52:26.370Z,83.43
2022-10-19T04:57:47.029Z,83.32
2022-10-19T05:02:52.371Z,83.37
2022-10-19T05:07:54.444Z,83.26
2022-10-19T05:13:15.035Z,82.83
2022-10-19T05:18:17.204Z,83.00
2022-10-19T05:23:38.678Z,82.97
2022-10-19T05:28:40.984Z,83.27
2022-10-19T05:34:03.260Z,83.32
2022-10-19T05:39:24.161Z,83.23
2022-10-19T05:44:26.300Z,83.22
2022-10-19T05:49:28.709Z,82.80
2022-10-19T05:54:49.576Z,82.99
2022-10-19T05:59:52.064Z,82.96
2022-10-19T06:04:54.250Z,83.24
2022-10-19T06:09:56.336Z,83.09
2022-10-19T06:14:58.466Z,83.04
2022-10-19T06:20:29.356Z,83.12
2022-10-19T06:25:49.911Z,82.96
2022-10-19T06:30:52.060Z,82.86
2022-10-19T06:35:54.220Z,82.87
2022-10-19T06:40:59.289Z,82.79
2022-10-19T06:46:09.330Z,82.86
2022-10-19T06:51:13.729Z,82.99
2022-10-19T06:56:15.948Z,82.79
2022-10-19T07:01:36.375Z,82.60
2022-10-19T07:06:57.407Z,82.76
2022-10-19T07:11:59.528Z,82.51
2022-10-19T07:17:20.081Z,82.65
2022-10-19T07:22:40.671Z,82.56
2022-10-19T07:28:01.203Z,82.74
2022-10-19T07:33:05.244Z,82.81
2022-10-19T07:38:07.485Z,82.99
2022-10-19T07:43:09.610Z,83.07
2022-10-19T07:48:30.349Z,83.01
2022-10-19T07:53:32.813Z,83.05
2022-10-19T07:58:55.360Z,83.30
2022-10-19T08:04:55.400Z,83.10
2022-10-19T08:09:50.816Z,82.95
2022-10-19T08:14:43.570Z,82.97
2022-10-19T08:19:46.560Z,83.02
2022-10-19T08:24:49.267Z,83.05
2022-10-19T08:29:51.937Z,83.10
2022-10-19T08:34:54.108Z,82.99
2022-10-19T08:39:56.294Z,83.10
2022-10-19T08:45:35.666Z,83.24
2022-10-19T08:50:40.344Z,83.20
2022-10-19T08:55:45.474Z,83.38
2022-10-19T09:01:14.454Z,83.55
2022-10-19T09:06:31.774Z,83.17
2022-10-19T09:11:38.230Z,83.01
2022-10-19T09:16:40.512Z,82.89
2022-10-19T09:21:48.164Z,83.05
2022-10-19T09:26:53.632Z,83.20
2022-10-19T09:37:41.764Z,83.09
2022-10-19T09:42:43.906Z,83.14
2022-10-19T09:47:48.611Z,83.32
2022-10-19T09:53:06.260Z,83.44
2022-10-19T09:58:14.462Z,83.33
2022-10-19T10:03:24.991Z,83.35
2022-10-19T10:08:51.107Z,83.11
2022-10-19T10:13:55.359Z,83.11
2022-10-19T10:19:16.980Z,83.21
2022-10-19T10:24:34.166Z,83.22
2022-10-19T10:29:39.203Z,83.30
2022-10-19T10:34:51.779Z,83.53
2022-10-19T10:39:59.103Z,83.33
2022-10-19T10:45:05.863Z,83.34
2022-10-19T10:50:16.087Z,83.52
2022-10-19T10:55:18.902Z,83.49
2022-10-19T11:00:24.268Z,83.58
2022-10-19T11:05:29.818Z,83.63
2022-10-19T11:10:35.837Z,83.37
2022-10-19T11:16:06.728Z,82.94
2022-10-19T11:21:36.149Z,82.82
2022-10-19T11:27:11.957Z,82.42
2022-10-19T11:32:46.057Z,81.87
2022-10-19T11:38:27.418Z,82.01
2022-10-19T11:43:59.065Z,81.91
2022-10-19T11:49:38.387Z,81.60
2022-10-19T11:55:14.175Z,81.83
2022-10-19T12:00:38.096Z,81.68
2022-10-19T12:06:08.417Z,81.44
2022-10-19T12:11:19.644Z,81.45
2022-10-19T12:16:47.441Z,81.08
2022-10-19T12:21:51.196Z,80.88
2022-10-19T12:27:17.389Z,80.74
2022-10-19T12:32:22.192Z,80.71
2022-10-19T12:38:06.636Z,80.69
2022-10-19T12:44:06.222Z,80.70
2022-10-19T12:49:26.938Z,80.64
2022-10-19T12:54:38.740Z,80.46
2022-10-19T12:59:40.876Z,80.48
2022-10-19T13:04:52.869Z,80.50
2022-10-19T13:10:04.421Z,80.26
2022-10-19T13:15:36.394Z,79.53
2022-10-19T13:26:45.344Z,79.00
2022-10-19T13:31:47.503Z,79.39
2022-10-19T13:37:00.789Z,79.11
2022-10-19T13:42:02.964Z,78.98
2022-10-19T13:53:21.587Z,79.09
2022-10-19T13:59:00.988Z,79.04
2022-10-19T14:04:12.329Z,78.78
2022-10-19T14:09:37.362Z,78.76
2022-10-19T14:20:33.365Z,78.45
2022-10-19T14:25:35.918Z,78.75
2022-10-19T14:30:38.183Z,78.87
2022-10-19T14:35:58.953Z,78.93
2022-10-19T14:41:06.162Z,78.53
2022-10-19T14:46:08.414Z,78.53
2022-10-19T14:51:49.232Z,78.34
2022-10-19T14:57:12.729Z,78.37
2022-10-19T15:02:33.121Z,78.60
2022-10-19T15:07:39.575Z,78.39
2022-10-19T15:12:43.440Z,78.54
2022-10-19T15:18:00.976Z,78.38
2022-10-19T15:23:45.777Z,78.50
2022-10-19T15:28:49.145Z,78.58
2022-10-19T15:33:56.261Z,78.56
2022-10-19T15:39:17.529Z,78.30
2022-10-19T15:44:40.558Z,78.20
2022-10-19T15:50:02.254Z,78.22
2022-10-19T15:55:06.144Z,78.27
2022-10-19T16:00:29.882Z,78.51
2022-10-19T16:05:50.439Z,78.46
2022-10-19T16:10:52.578Z,78.19
2022-10-19T16:16:10.459Z,78.11
2022-10-19T16:21:14.189Z,78.23
2022-10-19T16:26:17.265Z,78.39
2022-10-19T16:31:38.283Z,78.05
2022-10-19T16:36:40.404Z,78.26
2022-10-19T16:41:44.203Z,78.49
2022-10-19T16:47:06.066Z,78.27
2022-10-19T16:52:08.252Z,78.04
2022-10-19T16:57:10.501Z,78.10
2022-10-19T17:02:12.969Z,77.95
2022-10-19T17:07:17.960Z,77.84
2022-10-19T17:12:20.147Z,77.71
2022-10-19T17:17:22.373Z,78.03
2022-10-19T17:22:24.636Z,77.58
2022-10-19T17:32:29.987Z,77.51
2022-10-19T17:37:32.704Z,77.42
2022-10-19T17:42:36.854Z,77.38
2022-10-19T17:47:39.043Z,77.52
2022-10-19T17:52:41.213Z,77.61
2022-10-19T17:57:45.903Z,77.64
2022-10-19T18:02:49.339Z,77.74
2022-10-19T18:08:11.875Z,77.86
2022-10-19T18:13:14.137Z,77.63
2022-10-19T18:18:36.766Z,77.54
2022-10-19T18:23:39.782Z,77.80
2022-10-19T18:28:42.750Z,77.71
2022-10-19T18:33:44.994Z,77.79
2022-10-19T18:39:06.501Z,77.76
2022-10-19T18:44:32.504Z,77.63
2022-10-19T18:49:55.034Z,78.14
2022-10-19T18:54:57.272Z,77.88
2022-10-19T18:59:59.794Z,78.23
2022-10-19T19:05:02.015Z,78.24
2022-10-19T19:10:06.263Z,78.21
2022-10-19T19:15:10.415Z,78.17
2022-10-19T19:20:13.039Z,78.26
2022-10-19T19:25:15.479Z,78.24
2022-10-19T19:30:17.733Z,78.23
2022-10-19T19:35:19.975Z,78.07
2022-10-19T19:40:42.059Z,77.54
2022-10-19T19:45:45.381Z,77.65
2022-10-19T19:50:47.558Z,77.75
2022-10-19T19:55:50.074Z,77.77
2022-10-19T20:01:16.688Z,77.36
2022-10-19T20:06:22.259Z,77.52
2022-10-19T20:11:29.254Z,77.41
2022-10-19T20:16:34.626Z,77.38
2022-10-19T20:21:37.172Z,77.42
2022-10-19T20:26:39.536Z,77.40
2022-10-19T20:31:41.872Z,77.15
2022-10-19T20:37:02.737Z,77.07
2022-10-19T20:42:23.606Z,77.04
2022-10-19T20:47:25.774Z,77.13
2022-10-19T20:52:27.858Z,77.03
2022-10-19T20:57:30.742Z,76.83
2022-10-19T21:02:33.022Z,76.98
2022-10-19T21:07:35.400Z,76.77
2022-10-19T21:12:38.946Z,76.88
2022-10-19T21:17:59.551Z,76.34
2022-10-19T21:23:01.651Z,75.98
2022-10-19T21:28:03.818Z,75.94
2022-10-19T21:33:05.960Z,75.79
2022-10-19T21:38:08.139Z,75.69
2022-10-19T21:43:11.566Z,75.76
2022-10-19T21:48:13.732Z,75.79
2022-10-19T21:53:20.547Z,75.54
2022-10-19T21:58:22.658Z,75.59
2022-10-19T22:03:24.849Z,75.70
2022-10-19T22:08:27.428Z,76.02
2022-10-19T22:13:30.185Z,75.92
2022-10-19T22:18:32.279Z,75.97
2022-10-19T22:23:34.459Z,75.86
2022-10-19T22:28:36.597Z,76.04
2022-10-19T22:33:39.738Z,76.22
2022-10-19T22:38:42.094Z,76.46
2022-10-19T22:43:44.283Z,76.46
2022-10-19T22:48:46.396Z,76.47
2022-10-19T22:53:48.559Z,76.53
2022-10-19T22:58:50.764Z,76.56
2022-10-19T23:04:11.668Z,76.77
2022-10-19T23:09:13.726Z,76.90
2022-10-19T23:14:16.195Z,76.64
2022-10-19T23:19:18.398Z,76.69
2022-10-19T23:24:20.690Z,76.75
2022-10-19T23:29:22.942Z,76.55
2022-10-19T23:34:25.126Z,76.55
2022-10-19T23:39:27.212Z,76.47
2022-10-19T23:44:29.319Z,76.60
2022-10-19T23:49:31.486Z,76.55
2022-10-19T23:54:52.387Z,76.66
2022-10-19T23:59:54.466Z,76.66
